This is the latest recevied weather packets stored in our database for station/object VK4RM-13. If no packets are shown the sender has not sent any weather packets the latest 10 day(s).
| Time | Temp. | Humidity | Pressure | Rain* | Wind** | Luminosity | Snow |
|---|---|---|---|---|---|---|---|
| 1778133393 | 24.44° C | 83% | 993.5 hPa | 0 mm | - | - | - |
| 1778132793 | 23.33° C | 86% | 993.6 hPa | 0 mm | - | - | - |
| 1778132193 | 23.89° C | 84% | 993.7 hPa | 0 mm | - | - | - |
| 1778131593 | 25.56° C | 80% | 993.6 hPa | 0 mm | - | - | - |
| 1778130994 | 25.56° C | 78% | 993.7 hPa | 0.76 mm | - | - | - |
| 1778130393 | 23.89° C | 84% | 993.5 hPa | 0.76 mm | - | - | - |
| 1778129793 | 23.33° C | 86% | 993.6 hPa | 0.76 mm | - | - | - |
| 1778128594 | 23.89° C | 82% | 993.6 hPa | 0.76 mm | - | - | - |
| 1778127995 | 25.56° C | 74% | 993.6 hPa | 0.76 mm | - | - | - |
| 1778127395 | 26.67° C | 63% | 993.6 hPa | 0 mm | - | - | - |
| 1778126795 | 27.78° C | 61% | 993.5 hPa | 0 mm | - | - | - |
| 1778126193 | 28.89° C | 60% | 993.4 hPa | 0 mm | - | - | - |
| 1778125593 | 28.89° C | 60% | 993.5 hPa | 0 mm | - | - | - |
| 1778124994 | 28.89° C | 58% | 993.5 hPa | 0 mm | - | - | - |
| 1778124394 | 27.78° C | 62% | 993.6 hPa | 0 mm | - | - | - |
| 1778123793 | 27.22° C | 64% | 993.8 hPa | 0 mm | - | - | - |
| 1778123193 | 27.78° C | 63% | 994 hPa | 0 mm | - | - | - |
| 1778122594 | 27.78° C | 63% | 994.1 hPa | 0 mm | - | - | - |
| 1778121994 | 28.33° C | 61% | 994.1 hPa | 0 mm | - | - | - |
| 1778121394 | 28.89° C | 58% | 994.1 hPa | 0 mm | - | - | - |
| 1778120794 | 28.89° C | 58% | 994.2 hPa | 0 mm | - | - | - |
| 1778119594 | 27.78° C | 59% | 994.4 hPa | 0 mm | - | - | - |
| 1778118994 | 27.22° C | 65% | 994.6 hPa | 0 mm | - | - | - |
| 1778118394 | 27.78° C | 63% | 994.8 hPa | 0 mm | - | - | - |
| 1778117794 | 27.78° C | 63% | 994.8 hPa | 0 mm | - | - | - |
* Rain latest hour (hover to see other rain measurements)
** Current wind speed in m/s (hover to see current wind gust speed)